sensor_id;sensor_type;location;lat;lon;timestamp;P1;durP1;ratioP1;P2;durP2;ratioP2
21103;SDS011;10710;53.398;-1.514;2023-04-22T00:02:14;22.30;;;9.68;;
21103;SDS011;10710;53.398;-1.514;2023-04-22T00:04:59;19.25;;;8.50;;
21103;SDS011;10710;53.398;-1.514;2023-04-22T00:07:43;18.90;;;8.55;;
21103;SDS011;10710;53.398;-1.514;2023-04-22T00:10:27;18.27;;;8.40;;
21103;SDS011;10710;53.398;-1.514;2023-04-22T00:13:12;24.90;;;10.70;;
21103;SDS011;10710;53.398;-1.514;2023-04-22T00:15:56;18.58;;;8.20;;
21103;SDS011;10710;53.398;-1.514;2023-04-22T00:18:40;18.45;;;8.20;;
21103;SDS011;10710;53.398;-1.514;2023-04-22T00:21:25;15.43;;;7.13;;
21103;SDS011;10710;53.398;-1.514;2023-04-22T00:24:10;12.15;;;6.10;;
21103;SDS011;10710;53.398;-1.514;2023-04-22T00:26:54;13.93;;;5.80;;
21103;SDS011;10710;53.398;-1.514;2023-04-22T00:29:39;8.93;;;5.05;;
21103;SDS011;10710;53.398;-1.514;2023-04-22T00:32:23;11.20;;;5.47;;
21103;SDS011;10710;53.398;-1.514;2023-04-22T00:35:08;10.00;;;5.00;;
21103;SDS011;10710;53.398;-1.514;2023-04-22T00:37:53;11.18;;;4.85;;
21103;SDS011;10710;53.398;-1.514;2023-04-22T00:40:38;10.63;;;4.80;;
21103;SDS011;10710;53.398;-1.514;2023-04-22T00:43:22;9.03;;;4.73;;
21103;SDS011;10710;53.398;-1.514;2023-04-22T00:46:07;11.15;;;5.05;;
21103;SDS011;10710;53.398;-1.514;2023-04-22T00:48:52;9.80;;;5.10;;
21103;SDS011;10710;53.398;-1.514;2023-04-22T00:51:36;9.90;;;5.00;;
21103;SDS011;10710;53.398;-1.514;2023-04-22T00:54:20;16.60;;;6.43;;
21103;SDS011;10710;53.398;-1.514;2023-04-22T00:57:04;11.93;;;5.80;;
21103;SDS011;10710;53.398;-1.514;2023-04-22T00:59:49;11.93;;;6.55;;
21103;SDS011;10710;53.398;-1.514;2023-04-22T01:02:33;11.98;;;5.70;;
21103;SDS011;10710;53.398;-1.514;2023-04-22T01:05:18;10.30;;;5.80;;
21103;SDS011;10710;53.398;-1.514;2023-04-22T01:08:03;8.05;;;4.72;;
21103;SDS011;10710;53.398;-1.514;2023-04-22T01:10:47;10.43;;;5.82;;
21103;SDS011;10710;53.398;-1.514;2023-04-22T01:13:31;10.02;;;5.13;;
21103;SDS011;10710;53.398;-1.514;2023-04-22T01:16:15;10.30;;;5.13;;
21103;SDS011;10710;53.398;-1.514;2023-04-22T01:19:00;11.32;;;4.88;;
21103;SDS011;10710;53.398;-1.514;2023-04-22T01:21:45;9.77;;;4.80;;
21103;SDS011;10710;53.398;-1.514;2023-04-22T01:24:32;11.13;;;5.22;;
21103;SDS011;10710;53.398;-1.514;2023-04-22T01:27:17;10.80;;;4.25;;
21103;SDS011;10710;53.398;-1.514;2023-04-22T01:30:01;9.07;;;4.28;;
21103;SDS011;10710;53.398;-1.514;2023-04-22T01:32:46;9.27;;;4.28;;
21103;SDS011;10710;53.398;-1.514;2023-04-22T01:35:32;12.20;;;4.40;;
21103;SDS011;10710;53.398;-1.514;2023-04-22T01:38:22;11.32;;;4.82;;
21103;SDS011;10710;53.398;-1.514;2023-04-22T01:41:06;10.40;;;5.03;;
21103;SDS011;10710;53.398;-1.514;2023-04-22T01:43:52;11.27;;;4.18;;
21103;SDS011;10710;53.398;-1.514;2023-04-22T01:46:37;10.50;;;4.63;;
21103;SDS011;10710;53.398;-1.514;2023-04-22T01:49:21;11.05;;;4.97;;
21103;SDS011;10710;53.398;-1.514;2023-04-22T01:52:05;9.75;;;4.10;;
21103;SDS011;10710;53.398;-1.514;2023-04-22T01:54:50;9.43;;;4.38;;
21103;SDS011;10710;53.398;-1.514;2023-04-22T01:57:35;7.35;;;4.35;;
21103;SDS011;10710;53.398;-1.514;2023-04-22T02:00:19;10.90;;;4.30;;
21103;SDS011;10710;53.398;-1.514;2023-04-22T02:03:03;8.85;;;4.63;;
21103;SDS011;10710;53.398;-1.514;2023-04-22T02:05:48;8.02;;;4.43;;
21103;SDS011;10710;53.398;-1.514;2023-04-22T02:08:32;7.63;;;3.90;;
21103;SDS011;10710;53.398;-1.514;2023-04-22T02:11:16;9.45;;;4.35;;
21103;SDS011;10710;53.398;-1.514;2023-04-22T02:14:00;8.85;;;4.03;;
21103;SDS011;10710;53.398;-1.514;2023-04-22T02:16:44;7.22;;;3.60;;
21103;SDS011;10710;53.398;-1.514;2023-04-22T02:19:29;6.63;;;3.63;;
21103;SDS011;10710;53.398;-1.514;2023-04-22T02:22:13;7.53;;;3.50;;
21103;SDS011;10710;53.398;-1.514;2023-04-22T02:24:57;15.55;;;4.60;;
21103;SDS011;10710;53.398;-1.514;2023-04-22T02:27:42;7.65;;;3.50;;
21103;SDS011;10710;53.398;-1.514;2023-04-22T02:30:26;9.23;;;3.70;;
21103;SDS011;10710;53.398;-1.514;2023-04-22T02:33:11;8.38;;;4.00;;
21103;SDS011;10710;53.398;-1.514;2023-04-22T02:35:55;9.27;;;3.70;;
21103;SDS011;10710;53.398;-1.514;2023-04-22T02:38:39;5.93;;;3.50;;
21103;SDS011;10710;53.398;-1.514;2023-04-22T02:41:24;9.55;;;4.07;;
21103;SDS011;10710;53.398;-1.514;2023-04-22T02:44:08;8.60;;;4.10;;
21103;SDS011;10710;53.398;-1.514;2023-04-22T02:46:52;7.70;;;4.82;;
21103;SDS011;10710;53.398;-1.514;2023-04-22T02:49:36;9.25;;;4.13;;
21103;SDS011;10710;53.398;-1.514;2023-04-22T02:52:20;8.17;;;4.20;;
21103;SDS011;10710;53.398;-1.514;2023-04-22T02:55:07;5.88;;;3.42;;
21103;SDS011;10710;53.398;-1.514;2023-04-22T02:57:52;6.47;;;3.60;;
21103;SDS011;10710;53.398;-1.514;2023-04-22T03:00:36;6.65;;;3.03;;
21103;SDS011;10710;53.398;-1.514;2023-04-22T03:03:21;5.90;;;3.03;;
21103;SDS011;10710;53.398;-1.514;2023-04-22T03:06:06;8.77;;;3.55;;
21103;SDS011;10710;53.398;-1.514;2023-04-22T03:08:50;5.57;;;3.20;;
21103;SDS011;10710;53.398;-1.514;2023-04-22T03:11:34;6.47;;;3.05;;
21103;SDS011;10710;53.398;-1.514;2023-04-22T03:14:18;5.07;;;3.00;;
21103;SDS011;10710;53.398;-1.514;2023-04-22T03:17:03;4.18;;;2.92;;
21103;SDS011;10710;53.398;-1.514;2023-04-22T03:19:47;4.78;;;2.55;;
21103;SDS011;10710;53.398;-1.514;2023-04-22T03:22:32;4.13;;;2.63;;
21103;SDS011;10710;53.398;-1.514;2023-04-22T03:25:17;4.57;;;2.80;;
21103;SDS011;10710;53.398;-1.514;2023-04-22T03:28:02;6.57;;;2.60;;
21103;SDS011;10710;53.398;-1.514;2023-04-22T03:30:46;4.65;;;2.70;;
21103;SDS011;10710;53.398;-1.514;2023-04-22T03:33:31;4.53;;;2.50;;
21103;SDS011;10710;53.398;-1.514;2023-04-22T03:36:15;6.93;;;3.08;;
21103;SDS011;10710;53.398;-1.514;2023-04-22T03:38:59;4.23;;;2.50;;
21103;SDS011;10710;53.398;-1.514;2023-04-22T03:41:43;3.80;;;2.13;;
21103;SDS011;10710;53.398;-1.514;2023-04-22T03:44:27;4.50;;;2.50;;
21103;SDS011;10710;53.398;-1.514;2023-04-22T03:47:11;3.53;;;2.47;;
21103;SDS011;10710;53.398;-1.514;2023-04-22T03:49:56;3.40;;;2.13;;
21103;SDS011;10710;53.398;-1.514;2023-04-22T03:52:40;3.85;;;2.45;;
21103;SDS011;10710;53.398;-1.514;2023-04-22T03:55:24;5.20;;;2.85;;
21103;SDS011;10710;53.398;-1.514;2023-04-22T03:58:09;5.10;;;2.78;;
21103;SDS011;10710;53.398;-1.514;2023-04-22T04:00:53;5.82;;;2.60;;
21103;SDS011;10710;53.398;-1.514;2023-04-22T04:03:38;3.78;;;2.30;;
21103;SDS011;10710;53.398;-1.514;2023-04-22T04:06:22;4.45;;;2.72;;
21103;SDS011;10710;53.398;-1.514;2023-04-22T04:09:06;5.37;;;2.43;;
21103;SDS011;10710;53.398;-1.514;2023-04-22T04:11:50;4.03;;;2.47;;
21103;SDS011;10710;53.398;-1.514;2023-04-22T04:14:34;3.92;;;2.40;;
21103;SDS011;10710;53.398;-1.514;2023-04-22T04:17:19;5.97;;;2.50;;
21103;SDS011;10710;53.398;-1.514;2023-04-22T04:20:04;4.32;;;2.40;;
21103;SDS011;10710;53.398;-1.514;2023-04-22T04:22:49;5.10;;;2.55;;
21103;SDS011;10710;53.398;-1.514;2023-04-22T04:25:33;5.47;;;2.63;;
21103;SDS011;10710;53.398;-1.514;2023-04-22T04:28:21;7.38;;;2.92;;
21103;SDS011;10710;53.398;-1.514;2023-04-22T04:31:05;4.40;;;2.42;;
21103;SDS011;10710;53.398;-1.514;2023-04-22T04:33:50;4.03;;;2.45;;
21103;SDS011;10710;53.398;-1.514;2023-04-22T04:36:35;4.22;;;2.50;;
21103;SDS011;10710;53.398;-1.514;2023-04-22T04:39:22;5.37;;;2.53;;
21103;SDS011;10710;53.398;-1.514;2023-04-22T04:42:08;3.50;;;2.25;;
21103;SDS011;10710;53.398;-1.514;2023-04-22T04:44:54;3.63;;;2.50;;
21103;SDS011;10710;53.398;-1.514;2023-04-22T04:47:41;3.80;;;2.20;;
21103;SDS011;10710;53.398;-1.514;2023-04-22T04:50:25;3.30;;;2.10;;
21103;SDS011;10710;53.398;-1.514;2023-04-22T04:53:10;3.63;;;2.38;;
21103;SDS011;10710;53.398;-1.514;2023-04-22T04:55:55;5.05;;;2.22;;
21103;SDS011;10710;53.398;-1.514;2023-04-22T04:58:39;4.80;;;2.88;;
21103;SDS011;10710;53.398;-1.514;2023-04-22T05:01:23;5.50;;;2.80;;
21103;SDS011;10710;53.398;-1.514;2023-04-22T05:04:08;4.13;;;2.50;;
21103;SDS011;10710;53.398;-1.514;2023-04-22T05:06:52;3.83;;;2.85;;
21103;SDS011;10710;53.398;-1.514;2023-04-22T05:09:37;4.30;;;2.50;;
21103;SDS011;10710;53.398;-1.514;2023-04-22T05:12:21;6.65;;;2.85;;
21103;SDS011;10710;53.398;-1.514;2023-04-22T05:15:06;6.17;;;4.13;;
21103;SDS011;10710;53.398;-1.514;2023-04-22T05:17:50;4.97;;;2.95;;
21103;SDS011;10710;53.398;-1.514;2023-04-22T05:20:34;5.88;;;3.10;;
21103;SDS011;10710;53.398;-1.514;2023-04-22T05:23:18;5.55;;;3.13;;
21103;SDS011;10710;53.398;-1.514;2023-04-22T05:26:03;4.25;;;2.72;;
21103;SDS011;10710;53.398;-1.514;2023-04-22T05:28:47;4.50;;;2.33;;
21103;SDS011;10710;53.398;-1.514;2023-04-22T05:31:32;3.67;;;2.20;;
21103;SDS011;10710;53.398;-1.514;2023-04-22T05:34:16;5.67;;;2.77;;
21103;SDS011;10710;53.398;-1.514;2023-04-22T05:37:03;3.65;;;2.25;;
21103;SDS011;10710;53.398;-1.514;2023-04-22T05:39:48;4.43;;;2.47;;
21103;SDS011;10710;53.398;-1.514;2023-04-22T05:42:33;5.97;;;2.50;;
21103;SDS011;10710;53.398;-1.514;2023-04-22T05:45:18;5.85;;;2.65;;
21103;SDS011;10710;53.398;-1.514;2023-04-22T05:48:02;5.73;;;2.60;;
21103;SDS011;10710;53.398;-1.514;2023-04-22T05:50:46;5.68;;;2.75;;
21103;SDS011;10710;53.398;-1.514;2023-04-22T05:53:31;8.70;;;2.95;;
21103;SDS011;10710;53.398;-1.514;2023-04-22T05:56:15;3.80;;;2.50;;
21103;SDS011;10710;53.398;-1.514;2023-04-22T05:58:59;7.10;;;2.90;;
21103;SDS011;10710;53.398;-1.514;2023-04-22T06:01:43;4.38;;;2.70;;
21103;SDS011;10710;53.398;-1.514;2023-04-22T06:04:28;5.43;;;3.22;;
21103;SDS011;10710;53.398;-1.514;2023-04-22T06:07:12;4.93;;;2.80;;
21103;SDS011;10710;53.398;-1.514;2023-04-22T06:09:56;8.93;;;3.70;;
21103;SDS011;10710;53.398;-1.514;2023-04-22T06:12:40;6.90;;;3.15;;
21103;SDS011;10710;53.398;-1.514;2023-04-22T06:15:24;9.13;;;3.25;;
21103;SDS011;10710;53.398;-1.514;2023-04-22T06:18:09;6.38;;;3.42;;
21103;SDS011;10710;53.398;-1.514;2023-04-22T06:20:53;5.75;;;2.70;;
21103;SDS011;10710;53.398;-1.514;2023-04-22T06:23:37;5.45;;;3.25;;
21103;SDS011;10710;53.398;-1.514;2023-04-22T06:26:22;7.38;;;4.13;;
21103;SDS011;10710;53.398;-1.514;2023-04-22T06:29:06;9.47;;;3.73;;
21103;SDS011;10710;53.398;-1.514;2023-04-22T06:31:51;7.90;;;3.45;;
21103;SDS011;10710;53.398;-1.514;2023-04-22T06:34:37;5.18;;;3.20;;
21103;SDS011;10710;53.398;-1.514;2023-04-22T06:37:21;6.67;;;3.37;;
21103;SDS011;10710;53.398;-1.514;2023-04-22T06:40:05;7.32;;;3.33;;
21103;SDS011;10710;53.398;-1.514;2023-04-22T06:42:50;6.35;;;3.75;;
21103;SDS011;10710;53.398;-1.514;2023-04-22T06:45:34;7.23;;;3.23;;
21103;SDS011;10710;53.398;-1.514;2023-04-22T06:48:19;6.63;;;3.60;;
21103;SDS011;10710;53.398;-1.514;2023-04-22T06:51:04;6.32;;;3.60;;
21103;SDS011;10710;53.398;-1.514;2023-04-22T06:53:48;6.97;;;3.60;;
21103;SDS011;10710;53.398;-1.514;2023-04-22T06:56:32;7.68;;;3.03;;
21103;SDS011;10710;53.398;-1.514;2023-04-22T06:59:16;5.55;;;3.35;;
21103;SDS011;10710;53.398;-1.514;2023-04-22T07:02:00;4.30;;;2.90;;
21103;SDS011;10710;53.398;-1.514;2023-04-22T07:04:44;8.27;;;3.40;;
21103;SDS011;10710;53.398;-1.514;2023-04-22T07:07:29;8.52;;;3.53;;
21103;SDS011;10710;53.398;-1.514;2023-04-22T07:10:13;9.70;;;3.80;;
21103;SDS011;10710;53.398;-1.514;2023-04-22T07:12:57;6.70;;;3.00;;
21103;SDS011;10710;53.398;-1.514;2023-04-22T07:15:42;7.68;;;3.00;;
21103;SDS011;10710;53.398;-1.514;2023-04-22T07:18:28;12.30;;;4.32;;
21103;SDS011;10710;53.398;-1.514;2023-04-22T07:21:12;5.30;;;2.92;;
21103;SDS011;10710;53.398;-1.514;2023-04-22T07:23:57;6.43;;;2.47;;
21103;SDS011;10710;53.398;-1.514;2023-04-22T07:26:41;3.63;;;1.70;;
21103;SDS011;10710;53.398;-1.514;2023-04-22T07:29:27;3.97;;;2.23;;
21103;SDS011;10710;53.398;-1.514;2023-04-22T07:32:11;4.78;;;2.50;;
21103;SDS011;10710;53.398;-1.514;2023-04-22T07:34:55;7.43;;;3.30;;
21103;SDS011;10710;53.398;-1.514;2023-04-22T07:37:40;5.97;;;3.08;;
21103;SDS011;10710;53.398;-1.514;2023-04-22T07:40:25;6.55;;;3.40;;
21103;SDS011;10710;53.398;-1.514;2023-04-22T07:43:09;5.68;;;3.42;;
21103;SDS011;10710;53.398;-1.514;2023-04-22T07:45:53;8.20;;;4.40;;
21103;SDS011;10710;53.398;-1.514;2023-04-22T07:48:38;15.50;;;5.80;;
21103;SDS011;10710;53.398;-1.514;2023-04-22T07:51:23;11.88;;;5.57;;
21103;SDS011;10710;53.398;-1.514;2023-04-22T07:54:08;18.73;;;6.78;;
21103;SDS011;10710;53.398;-1.514;2023-04-22T07:56:53;14.23;;;6.80;;
21103;SDS011;10710;53.398;-1.514;2023-04-22T07:59:37;16.42;;;7.07;;
21103;SDS011;10710;53.398;-1.514;2023-04-22T08:02:21;16.10;;;7.80;;
21103;SDS011;10710;53.398;-1.514;2023-04-22T08:05:06;14.85;;;7.35;;
21103;SDS011;10710;53.398;-1.514;2023-04-22T08:07:50;18.53;;;8.30;;
21103;SDS011;10710;53.398;-1.514;2023-04-22T08:10:34;18.42;;;7.35;;
21103;SDS011;10710;53.398;-1.514;2023-04-22T08:13:19;21.27;;;7.82;;
21103;SDS011;10710;53.398;-1.514;2023-04-22T08:16:03;18.08;;;8.05;;
21103;SDS011;10710;53.398;-1.514;2023-04-22T08:18:50;15.70;;;7.63;;
21103;SDS011;10710;53.398;-1.514;2023-04-22T08:21:35;18.00;;;8.63;;
21103;SDS011;10710;53.398;-1.514;2023-04-22T08:24:19;22.33;;;8.60;;
21103;SDS011;10710;53.398;-1.514;2023-04-22T08:27:04;20.47;;;8.43;;
21103;SDS011;10710;53.398;-1.514;2023-04-22T08:29:48;20.20;;;8.95;;
21103;SDS011;10710;53.398;-1.514;2023-04-22T08:32:33;18.67;;;8.10;;
21103;SDS011;10710;53.398;-1.514;2023-04-22T08:35:16;21.00;;;9.25;;
21103;SDS011;10710;53.398;-1.514;2023-04-22T08:38:01;17.87;;;8.73;;
21103;SDS011;10710;53.398;-1.514;2023-04-22T08:40:45;20.00;;;8.30;;
21103;SDS011;10710;53.398;-1.514;2023-04-22T08:43:31;18.65;;;7.93;;
21103;SDS011;10710;53.398;-1.514;2023-04-22T08:46:17;16.52;;;6.85;;
21103;SDS011;10710;53.398;-1.514;2023-04-22T08:49:04;14.70;;;7.00;;
21103;SDS011;10710;53.398;-1.514;2023-04-22T08:51:49;13.52;;;6.13;;
21103;SDS011;10710;53.398;-1.514;2023-04-22T08:54:33;18.27;;;6.97;;
21103;SDS011;10710;53.398;-1.514;2023-04-22T08:57:20;17.40;;;6.90;;
21103;SDS011;10710;53.398;-1.514;2023-04-22T09:00:05;18.02;;;7.07;;
21103;SDS011;10710;53.398;-1.514;2023-04-22T09:02:51;14.10;;;6.28;;
21103;SDS011;10710;53.398;-1.514;2023-04-22T09:05:37;16.73;;;7.18;;
21103;SDS011;10710;53.398;-1.514;2023-04-22T09:08:23;19.25;;;6.95;;
21103;SDS011;10710;53.398;-1.514;2023-04-22T09:11:09;18.52;;;7.32;;
21103;SDS011;10710;53.398;-1.514;2023-04-22T09:13:53;15.73;;;7.55;;
21103;SDS011;10710;53.398;-1.514;2023-04-22T09:16:45;16.15;;;6.93;;
21103;SDS011;10710;53.398;-1.514;2023-04-22T09:19:30;16.52;;;7.47;;
21103;SDS011;10710;53.398;-1.514;2023-04-22T09:22:15;15.50;;;7.47;;
21103;SDS011;10710;53.398;-1.514;2023-04-22T09:24:59;15.98;;;7.38;;
21103;SDS011;10710;53.398;-1.514;2023-04-22T09:27:50;15.57;;;7.57;;
21103;SDS011;10710;53.398;-1.514;2023-04-22T09:30:42;13.77;;;7.30;;
21103;SDS011;10710;53.398;-1.514;2023-04-22T09:33:29;12.43;;;6.85;;
21103;SDS011;10710;53.398;-1.514;2023-04-22T09:36:14;14.07;;;6.30;;
21103;SDS011;10710;53.398;-1.514;2023-04-22T09:39:00;12.63;;;6.65;;
21103;SDS011;10710;53.398;-1.514;2023-04-22T09:41:49;16.50;;;6.78;;
21103;SDS011;10710;53.398;-1.514;2023-04-22T09:44:37;13.80;;;6.90;;
21103;SDS011;10710;53.398;-1.514;2023-04-22T09:47:22;13.60;;;6.45;;
21103;SDS011;10710;53.398;-1.514;2023-04-22T09:50:07;15.60;;;7.53;;
21103;SDS011;10710;53.398;-1.514;2023-04-22T09:52:59;15.98;;;7.82;;
21103;SDS011;10710;53.398;-1.514;2023-04-22T09:55:51;13.38;;;6.90;;
21103;SDS011;10710;53.398;-1.514;2023-04-22T09:58:38;10.18;;;5.85;;
21103;SDS011;10710;53.398;-1.514;2023-04-22T10:01:33;11.18;;;5.10;;
21103;SDS011;10710;53.398;-1.514;2023-04-22T10:04:23;15.43;;;6.30;;
21103;SDS011;10710;53.398;-1.514;2023-04-22T10:07:08;13.40;;;6.23;;
21103;SDS011;10710;53.398;-1.514;2023-04-22T10:09:52;13.38;;;6.05;;
21103;SDS011;10710;53.398;-1.514;2023-04-22T10:12:36;10.25;;;5.20;;
21103;SDS011;10710;53.398;-1.514;2023-04-22T10:15:21;11.43;;;6.00;;
21103;SDS011;10710;53.398;-1.514;2023-04-22T10:18:11;10.40;;;6.05;;
21103;SDS011;10710;53.398;-1.514;2023-04-22T10:20:57;12.23;;;6.22;;
21103;SDS011;10710;53.398;-1.514;2023-04-22T10:23:46;15.75;;;6.55;;
21103;SDS011;10710;53.398;-1.514;2023-04-22T10:29:33;13.33;;;6.17;;
21103;SDS011;10710;53.398;-1.514;2023-04-22T10:32:23;12.20;;;6.50;;
21103;SDS011;10710;53.398;-1.514;2023-04-22T10:35:12;13.27;;;5.90;;
21103;SDS011;10710;53.398;-1.514;2023-04-22T10:37:57;14.77;;;6.65;;
21103;SDS011;10710;53.398;-1.514;2023-04-22T10:40:57;15.68;;;6.82;;
21103;SDS011;10710;53.398;-1.514;2023-04-22T10:43:46;14.15;;;6.90;;
21103;SDS011;10710;53.398;-1.514;2023-04-22T10:49:25;16.73;;;7.07;;
21103;SDS011;10710;53.398;-1.514;2023-04-22T10:52:18;15.10;;;7.53;;
21103;SDS011;10710;53.398;-1.514;2023-04-22T10:55:11;13.93;;;7.10;;
21103;SDS011;10710;53.398;-1.514;2023-04-22T10:57:55;13.07;;;7.20;;
21103;SDS011;10710;53.398;-1.514;2023-04-22T11:00:42;14.13;;;7.80;;
21103;SDS011;10710;53.398;-1.514;2023-04-22T11:03:28;17.15;;;6.55;;
21103;SDS011;10710;53.398;-1.514;2023-04-22T11:06:14;16.33;;;7.32;;
21103;SDS011;10710;53.398;-1.514;2023-04-22T11:09:08;24.83;;;15.53;;
21103;SDS011;10710;53.398;-1.514;2023-04-22T11:12:29;14.27;;;6.80;;
21103;SDS011;10710;53.398;-1.514;2023-04-22T11:15:18;16.00;;;7.28;;
21103;SDS011;10710;53.398;-1.514;2023-04-22T11:18:08;15.13;;;7.35;;
21103;SDS011;10710;53.398;-1.514;2023-04-22T11:20:55;11.88;;;7.10;;
21103;SDS011;10710;53.398;-1.514;2023-04-22T11:23:49;16.95;;;7.53;;
21103;SDS011;10710;53.398;-1.514;2023-04-22T11:26:34;13.50;;;7.40;;
21103;SDS011;10710;53.398;-1.514;2023-04-22T11:29:19;12.07;;;7.30;;
21103;SDS011;10710;53.398;-1.514;2023-04-22T11:32:04;14.35;;;7.60;;
21103;SDS011;10710;53.398;-1.514;2023-04-22T11:34:50;15.17;;;7.43;;
21103;SDS011;10710;53.398;-1.514;2023-04-22T11:37:42;13.07;;;7.20;;
21103;SDS011;10710;53.398;-1.514;2023-04-22T11:40:29;12.48;;;6.63;;
21103;SDS011;10710;53.398;-1.514;2023-04-22T11:43:14;13.25;;;6.43;;
21103;SDS011;10710;53.398;-1.514;2023-04-22T11:46:01;11.77;;;6.13;;
21103;SDS011;10710;53.398;-1.514;2023-04-22T11:48:47;11.23;;;6.00;;
21103;SDS011;10710;53.398;-1.514;2023-04-22T11:51:32;13.38;;;6.72;;
21103;SDS011;10710;53.398;-1.514;2023-04-22T11:54:16;14.88;;;6.45;;
21103;SDS011;10710;53.398;-1.514;2023-04-22T11:57:09;13.50;;;6.63;;
21103;SDS011;10710;53.398;-1.514;2023-04-22T11:59:57;13.35;;;6.43;;
21103;SDS011;10710;53.398;-1.514;2023-04-22T12:02:42;18.15;;;7.47;;
21103;SDS011;10710;53.398;-1.514;2023-04-22T12:05:45;12.75;;;7.05;;
21103;SDS011;10710;53.398;-1.514;2023-04-22T12:08:33;11.27;;;6.78;;
21103;SDS011;10710;53.398;-1.514;2023-04-22T12:11:20;13.70;;;7.00;;
21103;SDS011;10710;53.398;-1.514;2023-04-22T12:14:04;16.23;;;7.07;;
21103;SDS011;10710;53.398;-1.514;2023-04-22T12:16:49;13.00;;;7.47;;
21103;SDS011;10710;53.398;-1.514;2023-04-22T12:19:33;15.07;;;7.93;;
21103;SDS011;10710;53.398;-1.514;2023-04-22T12:22:24;13.23;;;7.80;;
21103;SDS011;10710;53.398;-1.514;2023-04-22T12:25:09;20.45;;;10.27;;
21103;SDS011;10710;53.398;-1.514;2023-04-22T12:27:54;14.38;;;7.28;;
21103;SDS011;10710;53.398;-1.514;2023-04-22T12:30:40;12.93;;;6.95;;
21103;SDS011;10710;53.398;-1.514;2023-04-22T12:33:24;13.07;;;6.55;;
21103;SDS011;10710;53.398;-1.514;2023-04-22T12:36:09;13.47;;;6.53;;
21103;SDS011;10710;53.398;-1.514;2023-04-22T12:38:54;12.82;;;6.82;;
21103;SDS011;10710;53.398;-1.514;2023-04-22T12:41:39;14.25;;;6.72;;
21103;SDS011;10710;53.398;-1.514;2023-04-22T12:44:23;10.50;;;6.28;;
21103;SDS011;10710;53.398;-1.514;2023-04-22T12:47:07;16.60;;;6.80;;
21103;SDS011;10710;53.398;-1.514;2023-04-22T12:49:52;13.77;;;5.85;;
21103;SDS011;10710;53.398;-1.514;2023-04-22T12:52:36;13.73;;;5.90;;
21103;SDS011;10710;53.398;-1.514;2023-04-22T12:55:20;14.10;;;6.47;;
21103;SDS011;10710;53.398;-1.514;2023-04-22T12:58:04;10.57;;;6.32;;
21103;SDS011;10710;53.398;-1.514;2023-04-22T13:00:48;12.63;;;6.32;;
21103;SDS011;10710;53.398;-1.514;2023-04-22T13:03:33;10.48;;;6.18;;
21103;SDS011;10710;53.398;-1.514;2023-04-22T13:06:17;13.65;;;6.05;;
21103;SDS011;10710;53.398;-1.514;2023-04-22T13:09:01;12.55;;;7.07;;
21103;SDS011;10710;53.398;-1.514;2023-04-22T13:11:45;15.75;;;6.53;;
21103;SDS011;10710;53.398;-1.514;2023-04-22T13:14:32;12.48;;;6.47;;
21103;SDS011;10710;53.398;-1.514;2023-04-22T13:17:16;14.20;;;7.20;;
21103;SDS011;10710;53.398;-1.514;2023-04-22T13:20:01;14.32;;;7.57;;
21103;SDS011;10710;53.398;-1.514;2023-04-22T13:22:47;18.30;;;8.03;;
21103;SDS011;10710;53.398;-1.514;2023-04-22T13:25:31;14.48;;;7.20;;
21103;SDS011;10710;53.398;-1.514;2023-04-22T13:28:15;13.40;;;6.65;;
21103;SDS011;10710;53.398;-1.514;2023-04-22T13:30:59;14.25;;;7.20;;
21103;SDS011;10710;53.398;-1.514;2023-04-22T13:33:43;16.13;;;7.43;;
21103;SDS011;10710;53.398;-1.514;2023-04-22T13:36:29;13.27;;;7.30;;
21103;SDS011;10710;53.398;-1.514;2023-04-22T13:39:14;15.35;;;7.93;;
21103;SDS011;10710;53.398;-1.514;2023-04-22T13:41:58;16.02;;;6.97;;
21103;SDS011;10710;53.398;-1.514;2023-04-22T13:44:43;11.75;;;6.85;;
21103;SDS011;10710;53.398;-1.514;2023-04-22T13:47:28;17.35;;;7.78;;
21103;SDS011;10710;53.398;-1.514;2023-04-22T13:50:12;17.35;;;8.18;;
21103;SDS011;10710;53.398;-1.514;2023-04-22T13:52:56;16.77;;;8.00;;
21103;SDS011;10710;53.398;-1.514;2023-04-22T13:55:40;15.82;;;7.72;;
21103;SDS011;10710;53.398;-1.514;2023-04-22T13:58:25;12.73;;;7.35;;
21103;SDS011;10710;53.398;-1.514;2023-04-22T14:01:10;15.55;;;7.43;;
21103;SDS011;10710;53.398;-1.514;2023-04-22T14:03:55;17.17;;;6.80;;
21103;SDS011;10710;53.398;-1.514;2023-04-22T14:06:39;12.63;;;6.80;;
21103;SDS011;10710;53.398;-1.514;2023-04-22T14:09:24;12.10;;;6.80;;
21103;SDS011;10710;53.398;-1.514;2023-04-22T14:12:09;13.65;;;6.82;;
21103;SDS011;10710;53.398;-1.514;2023-04-22T14:14:54;16.10;;;7.03;;
21103;SDS011;10710;53.398;-1.514;2023-04-22T14:17:39;12.07;;;6.32;;
21103;SDS011;10710;53.398;-1.514;2023-04-22T14:20:23;11.57;;;6.38;;
21103;SDS011;10710;53.398;-1.514;2023-04-22T14:23:08;11.73;;;6.20;;
21103;SDS011;10710;53.398;-1.514;2023-04-22T14:25:52;11.40;;;6.10;;
21103;SDS011;10710;53.398;-1.514;2023-04-22T14:28:38;10.70;;;5.60;;
21103;SDS011;10710;53.398;-1.514;2023-04-22T14:31:23;10.98;;;5.25;;
21103;SDS011;10710;53.398;-1.514;2023-04-22T14:34:08;10.77;;;5.53;;
21103;SDS011;10710;53.398;-1.514;2023-04-22T14:36:52;9.15;;;5.30;;
21103;SDS011;10710;53.398;-1.514;2023-04-22T14:39:37;9.50;;;5.07;;
21103;SDS011;10710;53.398;-1.514;2023-04-22T14:42:21;8.40;;;4.90;;
21103;SDS011;10710;53.398;-1.514;2023-04-22T14:45:06;9.05;;;4.43;;
21103;SDS011;10710;53.398;-1.514;2023-04-22T14:47:51;7.30;;;4.30;;
21103;SDS011;10710;53.398;-1.514;2023-04-22T14:50:36;8.00;;;4.05;;
21103;SDS011;10710;53.398;-1.514;2023-04-22T14:53:20;6.50;;;4.30;;
21103;SDS011;10710;53.398;-1.514;2023-04-22T14:56:04;6.85;;;3.92;;
21103;SDS011;10710;53.398;-1.514;2023-04-22T14:58:48;7.82;;;4.70;;
21103;SDS011;10710;53.398;-1.514;2023-04-22T15:01:33;10.00;;;5.00;;
21103;SDS011;10710;53.398;-1.514;2023-04-22T15:04:18;8.98;;;4.90;;
21103;SDS011;10710;53.398;-1.514;2023-04-22T15:07:02;9.30;;;4.93;;
21103;SDS011;10710;53.398;-1.514;2023-04-22T15:09:47;10.40;;;5.37;;
21103;SDS011;10710;53.398;-1.514;2023-04-22T15:12:31;7.57;;;4.38;;
21103;SDS011;10710;53.398;-1.514;2023-04-22T15:15:15;7.28;;;4.40;;
21103;SDS011;10710;53.398;-1.514;2023-04-22T15:18:02;8.27;;;5.00;;
21103;SDS011;10710;53.398;-1.514;2023-04-22T15:20:48;7.65;;;4.18;;
21103;SDS011;10710;53.398;-1.514;2023-04-22T15:23:33;7.80;;;4.40;;
21103;SDS011;10710;53.398;-1.514;2023-04-22T15:26:17;6.18;;;3.78;;
21103;SDS011;10710;53.398;-1.514;2023-04-22T15:29:01;6.75;;;3.75;;
21103;SDS011;10710;53.398;-1.514;2023-04-22T15:31:46;6.43;;;3.63;;
21103;SDS011;10710;53.398;-1.514;2023-04-22T15:34:30;7.50;;;4.20;;
21103;SDS011;10710;53.398;-1.514;2023-04-22T15:37:14;7.28;;;4.32;;
21103;SDS011;10710;53.398;-1.514;2023-04-22T15:39:59;6.13;;;3.88;;
21103;SDS011;10710;53.398;-1.514;2023-04-22T15:42:43;7.75;;;4.22;;
21103;SDS011;10710;53.398;-1.514;2023-04-22T15:45:27;8.25;;;4.88;;
21103;SDS011;10710;53.398;-1.514;2023-04-22T15:48:12;9.15;;;4.10;;
21103;SDS011;10710;53.398;-1.514;2023-04-22T15:50:56;8.07;;;3.90;;
21103;SDS011;10710;53.398;-1.514;2023-04-22T15:53:40;6.43;;;3.60;;
21103;SDS011;10710;53.398;-1.514;2023-04-22T15:56:24;5.80;;;3.58;;
21103;SDS011;10710;53.398;-1.514;2023-04-22T15:59:08;6.40;;;3.47;;
21103;SDS011;10710;53.398;-1.514;2023-04-22T16:01:53;5.32;;;3.80;;
21103;SDS011;10710;53.398;-1.514;2023-04-22T16:04:38;5.45;;;3.63;;
21103;SDS011;10710;53.398;-1.514;2023-04-22T16:07:22;5.28;;;3.28;;
21103;SDS011;10710;53.398;-1.514;2023-04-22T16:10:06;8.45;;;4.13;;
21103;SDS011;10710;53.398;-1.514;2023-04-22T16:12:51;6.07;;;3.37;;
21103;SDS011;10710;53.398;-1.514;2023-04-22T16:15:36;5.18;;;3.55;;
21103;SDS011;10710;53.398;-1.514;2023-04-22T16:18:20;5.65;;;3.60;;
21103;SDS011;10710;53.398;-1.514;2023-04-22T16:21:05;6.38;;;3.70;;